Terminal Aerodrome Forecast
Issued by NWS

Home | Current Version | Previous Version | Text Only | Print | Product List | Glossary On
Versions: 1 2 3 4 5 6 7 8 9 10 11 12 13 14 15
000
FTUS45 KGJT 191733
TAFASE
TAF
KASE 191733Z 1918/2018 32005KT P6SM VCSH SCT080 BKN100
      TEMPO 1919/1922 VRB10G20KT -SHRA BKN060
     FM192200 29006KT P6SM VCSH BKN050 OVC070
     FM200100 18005KT P6SM VCSH SCT050 BKN080
     FM200900 19004KT P6SM BKN090
     FM201400 VRB03KT P6SM SCT100=

USA.gov is the U.S. government's official web portal to all federal, state and local government web resources and services.